createdAt,value
2019-01-23T00:00:55.128Z,22.47
2019-01-23T00:03:21.084Z,22.87
2019-01-23T00:05:47.240Z,22.97
2019-01-23T00:08:13.175Z,23.93
2019-01-23T00:10:39.066Z,23.73
2019-01-23T00:13:04.991Z,23.47
2019-01-23T00:15:30.899Z,23.60
2019-01-23T00:17:56.817Z,24.00
2019-01-23T00:20:22.854Z,24.27
2019-01-23T00:22:48.753Z,23.23
2019-01-23T00:25:14.734Z,23.17
2019-01-23T00:27:40.652Z,23.37
2019-01-23T00:30:10.171Z,24.73
2019-01-23T00:32:36.074Z,24.07
2019-01-23T00:35:02.013Z,23.30
2019-01-23T00:37:27.912Z,23.00
2019-01-23T00:39:53.848Z,23.07
2019-01-23T00:42:19.747Z,24.03
2019-01-23T00:44:45.665Z,23.73
2019-01-23T00:47:11.603Z,23.13
2019-01-23T00:49:37.494Z,24.60
2019-01-23T00:52:03.432Z,23.53
2019-01-23T00:54:29.542Z,24.40
2019-01-23T00:56:55.480Z,22.50
2019-01-23T00:59:21.377Z,23.40
2019-01-23T01:01:47.266Z,24.33
2019-01-23T01:04:13.238Z,23.93
2019-01-23T01:06:39.156Z,23.90
2019-01-23T01:09:07.185Z,24.70
2019-01-23T01:11:33.080Z,24.20
2019-01-23T01:13:59.117Z,23.73
2019-01-23T01:16:25.015Z,24.37
2019-01-23T01:18:50.942Z,23.53
2019-01-23T01:21:16.825Z,23.83
2019-01-23T01:23:42.771Z,23.20
2019-01-23T01:26:08.777Z,22.97
2019-01-23T01:28:34.709Z,22.57
2019-01-23T01:31:00.642Z,23.67
2019-01-23T01:33:26.563Z,25.37
2019-01-23T01:35:52.459Z,24.80
2019-01-23T01:38:18.421Z,24.47
2019-01-23T01:40:44.315Z,24.10
2019-01-23T01:43:10.253Z,24.70
2019-01-23T01:45:36.186Z,24.17
2019-01-23T01:48:02.086Z,23.57
2019-01-23T01:50:28.131Z,22.57
2019-01-23T01:52:54.060Z,23.77
2019-01-23T01:55:20.005Z,22.00
2019-01-23T01:57:45.898Z,24.20
2019-01-23T02:00:17.726Z,22.83
2019-01-23T02:02:43.663Z,23.23
2019-01-23T02:05:09.660Z,22.63
2019-01-23T02:07:35.547Z,22.77
2019-01-23T02:10:02.842Z,24.37
2019-01-23T02:12:28.776Z,22.73
2019-01-23T02:14:54.695Z,23.57
2019-01-23T02:17:20.635Z,23.23
2019-01-23T02:19:46.562Z,21.60
2019-01-23T02:22:13.298Z,22.40
2019-01-23T02:24:39.238Z,22.23
2019-01-23T02:27:05.130Z,22.50
2019-01-23T02:29:31.054Z,23.53
2019-01-23T02:31:56.942Z,23.60
2019-01-23T02:34:22.882Z,23.93
2019-01-23T02:36:48.780Z,23.20
2019-01-23T02:39:14.702Z,24.13
2019-01-23T02:41:40.588Z,23.00
2019-01-23T02:44:06.485Z,22.27
2019-01-23T02:46:32.451Z,24.03
2019-01-23T02:48:58.439Z,22.03
2019-01-23T02:51:24.388Z,22.93
2019-01-23T02:53:50.278Z,22.00
2019-01-23T02:56:16.216Z,22.90
2019-01-23T02:58:42.115Z,24.60
2019-01-23T03:01:08.065Z,24.70
2019-01-23T03:03:33.951Z,23.53
2019-01-23T03:05:59.925Z,23.43
2019-01-23T03:08:25.819Z,24.20
2019-01-23T03:10:51.747Z,25.53
2019-01-23T03:13:17.679Z,24.83
2019-01-23T03:15:45.887Z,25.23
2019-01-23T03:18:11.923Z,25.83
2019-01-23T03:20:37.849Z,24.53
2019-01-23T03:23:03.781Z,24.40
2019-01-23T03:25:29.715Z,25.70
2019-01-23T03:27:55.680Z,25.93
2019-01-23T03:30:21.578Z,26.57
2019-01-23T03:32:47.511Z,26.03
2019-01-23T03:35:13.616Z,25.67
2019-01-23T03:37:39.546Z,26.23
2019-01-23T03:40:09.092Z,24.37
2019-01-23T03:42:34.995Z,24.40
2019-01-23T03:45:00.914Z,25.40
2019-01-23T03:47:26.841Z,25.10
2019-01-23T03:49:52.713Z,25.47
2019-01-23T03:52:18.661Z,25.33
2019-01-23T03:54:44.546Z,26.00
2019-01-23T03:57:10.438Z,25.00
2019-01-23T03:59:36.379Z,24.70
2019-01-23T04:02:02.290Z,24.93
2019-01-23T04:04:28.274Z,26.53
2019-01-23T04:06:54.160Z,23.60
2019-01-23T04:09:20.268Z,22.87
2019-01-23T04:11:46.135Z,26.30
2019-01-23T04:14:12.048Z,26.13
2019-01-23T04:16:37.930Z,26.53
2019-01-23T04:19:03.828Z,26.80
2019-01-23T04:21:29.709Z,27.93
2019-01-23T04:23:55.622Z,24.80
2019-01-23T04:26:21.585Z,26.90
2019-01-23T04:28:47.493Z,27.20
2019-01-23T04:31:13.422Z,26.23
2019-01-23T04:33:39.286Z,26.13
2019-01-23T04:36:05.192Z,28.63
2019-01-23T04:38:31.056Z,26.97
2019-01-23T04:40:56.976Z,28.20
2019-01-23T04:43:22.864Z,27.33
2019-01-23T04:45:48.777Z,26.50
2019-01-23T04:48:14.642Z,28.87
2019-01-23T04:51:00.731Z,26.90
2019-01-23T04:53:28.517Z,26.37
2019-01-23T04:55:54.391Z,27.87
2019-01-23T04:58:20.298Z,27.23
2019-01-23T05:00:46.333Z,28.10
2019-01-23T05:03:12.235Z,27.27
2019-01-23T05:05:38.143Z,28.43
2019-01-23T05:08:04.055Z,28.03
2019-01-23T05:10:29.948Z,29.27
2019-01-23T05:12:55.859Z,28.03
2019-01-23T05:15:21.744Z,26.60
2019-01-23T05:17:47.627Z,26.63
2019-01-23T05:20:14.849Z,27.93
2019-01-23T05:22:40.707Z,28.07
2019-01-23T05:25:06.702Z,26.13
2019-01-23T05:27:32.591Z,28.37
2019-01-23T05:29:58.502Z,25.40
2019-01-23T05:32:24.380Z,27.23
2019-01-23T05:34:50.296Z,25.77
2019-01-23T05:37:16.272Z,25.90
2019-01-23T05:39:42.192Z,28.53
2019-01-23T05:42:08.100Z,27.30
2019-01-23T05:44:33.976Z,28.17
2019-01-23T05:46:59.900Z,27.00
2019-01-23T05:49:25.917Z,25.33
2019-01-23T05:51:51.799Z,29.17
2019-01-23T05:54:17.708Z,28.00
2019-01-23T05:56:43.608Z,27.43
2019-01-23T05:59:09.481Z,29.47
2019-01-23T06:01:35.401Z,28.20
2019-01-23T06:04:01.267Z,29.00
2019-01-23T06:06:27.218Z,29.07
2019-01-23T06:08:53.108Z,28.57
2019-01-23T06:11:18.980Z,28.53
2019-01-23T06:13:44.903Z,26.80
2019-01-23T06:16:10.827Z,24.97
2019-01-23T06:18:36.715Z,28.17
2019-01-23T06:21:02.615Z,27.50
2019-01-23T06:23:28.521Z,27.30
2019-01-23T06:25:54.457Z,26.30
2019-01-23T06:28:20.403Z,26.83
2019-01-23T06:30:46.287Z,25.23
2019-01-23T06:33:12.202Z,27.73
2019-01-23T06:35:38.088Z,27.37
2019-01-23T06:38:03.973Z,25.50
2019-01-23T06:40:29.877Z,28.00
2019-01-23T06:42:55.752Z,28.50
2019-01-23T06:45:21.757Z,27.70
2019-01-23T06:47:47.980Z,26.67
2019-01-23T06:50:18.460Z,26.60
2019-01-23T06:52:44.367Z,27.70
2019-01-23T06:55:10.243Z,25.90
2019-01-23T06:57:36.154Z,26.60
2019-01-23T07:00:05.243Z,25.17
2019-01-23T07:02:31.162Z,26.17
2019-01-23T07:04:57.060Z,27.93
2019-01-23T07:07:22.974Z,27.87
2019-01-23T07:09:48.834Z,28.53
2019-01-23T07:12:14.740Z,26.67
2019-01-23T07:14:40.620Z,28.40
2019-01-23T07:17:06.518Z,27.47
2019-01-23T07:19:32.396Z,27.53
2019-01-23T07:21:58.331Z,28.60
2019-01-23T07:24:24.208Z,27.70
2019-01-23T07:26:50.120Z,26.13
2019-01-23T07:29:16.066Z,27.60
2019-01-23T07:31:41.982Z,25.70
2019-01-23T07:34:07.850Z,28.43
2019-01-23T07:36:33.868Z,29.50
2019-01-23T07:38:59.743Z,30.13
2019-01-23T07:41:25.643Z,28.23
2019-01-23T07:43:51.525Z,28.33
2019-01-23T07:46:17.439Z,30.40
2019-01-23T07:48:43.356Z,28.57
2019-01-23T07:51:09.281Z,29.93
2019-01-23T07:53:35.164Z,29.00
2019-01-23T07:56:01.035Z,27.70
2019-01-23T07:58:26.938Z,28.47
2019-01-23T08:00:52.894Z,28.17
2019-01-23T08:03:18.925Z,29.10
2019-01-23T08:05:44.829Z,27.93
2019-01-23T08:08:10.682Z,29.07
2019-01-23T08:10:36.602Z,27.83
2019-01-23T08:13:02.602Z,30.60
2019-01-23T08:15:30.612Z,29.83
2019-01-23T08:17:56.477Z,29.07
2019-01-23T08:20:24.389Z,27.27
2019-01-23T08:22:50.252Z,28.27
2019-01-23T08:25:16.192Z,29.47
2019-01-23T08:27:42.547Z,28.37
2019-01-23T08:30:11.398Z,30.23
2019-01-23T08:32:37.397Z,28.97
2019-01-23T08:35:05.082Z,29.20
2019-01-23T08:37:30.989Z,28.50
2019-01-23T08:39:56.870Z,27.77
2019-01-23T08:42:22.780Z,28.90
2019-01-23T08:44:48.644Z,26.80
2019-01-23T08:47:14.572Z,28.93
2019-01-23T08:49:40.442Z,29.57
2019-01-23T08:52:06.322Z,29.57
2019-01-23T08:54:32.267Z,28.70
2019-01-23T08:56:58.133Z,28.17
2019-01-23T08:59:24.042Z,28.10
2019-01-23T09:01:49.897Z,29.37
2019-01-23T09:04:15.810Z,28.60
2019-01-23T09:06:41.729Z,28.07
2019-01-23T09:09:07.655Z,27.90
2019-01-23T09:11:33.533Z,28.77
2019-01-23T09:13:59.432Z,27.00
2019-01-23T09:16:25.304Z,29.00
2019-01-23T09:18:51.221Z,27.57
2019-01-23T09:21:17.104Z,28.17
2019-01-23T09:23:42.979Z,28.40
2019-01-23T09:26:08.889Z,27.57
2019-01-23T09:28:34.833Z,28.33
2019-01-23T09:31:07.282Z,28.97
2019-01-23T09:33:51.636Z,27.80
2019-01-23T09:36:26.869Z,30.37
2019-01-23T09:39:14.764Z,30.77
2019-01-23T09:41:53.787Z,28.27
2019-01-23T09:44:57.417Z,29.60
2019-01-23T09:47:42.463Z,26.93
2019-01-23T09:50:24.091Z,28.47
2019-01-23T09:52:56.514Z,29.63
2019-01-23T09:55:22.533Z,27.90
2019-01-23T09:57:49.357Z,29.27
2019-01-23T10:00:21.445Z,30.63
2019-01-23T10:02:47.384Z,30.30
2019-01-23T10:05:13.438Z,28.77
2019-01-23T10:07:39.312Z,29.13
2019-01-23T10:10:09.076Z,28.40
2019-01-23T10:12:34.954Z,28.53
2019-01-23T10:15:00.845Z,28.40
2019-01-23T10:17:26.747Z,27.17
2019-01-23T10:19:52.746Z,24.57
2019-01-23T10:22:18.636Z,29.40
2019-01-23T10:24:44.535Z,28.93
2019-01-23T10:27:10.433Z,28.77
2019-01-23T10:29:36.343Z,28.17
2019-01-23T10:32:02.244Z,28.13
2019-01-23T10:34:28.120Z,30.67
2019-01-23T10:36:54.028Z,30.20
2019-01-23T10:39:19.889Z,29.07
2019-01-23T10:41:45.797Z,30.30
2019-01-23T10:44:11.719Z,29.97
2019-01-23T10:46:37.586Z,29.27
2019-01-23T10:49:03.497Z,33.13
2019-01-23T10:51:29.377Z,31.70
2019-01-23T10:53:55.289Z,30.47
2019-01-23T10:56:21.173Z,32.80
2019-01-23T10:58:47.070Z,32.47
2019-01-23T11:01:13.468Z,32.23
2019-01-23T11:03:39.455Z,32.00
2019-01-23T11:06:05.341Z,35.03
2019-01-23T11:08:31.313Z,35.70
2019-01-23T11:10:57.217Z,36.73
2019-01-23T11:13:23.740Z,35.70
2019-01-23T11:15:49.624Z,33.43
2019-01-23T11:18:15.743Z,37.20
2019-01-23T11:20:41.633Z,38.40
2019-01-23T11:23:07.546Z,37.47
2019-01-23T11:25:33.418Z,35.37
2019-01-23T11:27:59.510Z,36.00
2019-01-23T11:30:25.703Z,38.37
2019-01-23T11:32:51.729Z,36.83
2019-01-23T11:35:17.611Z,35.67
2019-01-23T11:37:43.490Z,36.70
2019-01-23T11:40:27.405Z,38.87
2019-01-23T11:42:53.268Z,40.90
2019-01-23T11:45:19.192Z,39.83
2019-01-23T11:47:45.080Z,38.80
2019-01-23T11:50:13.912Z,38.30
2019-01-23T11:52:39.801Z,41.43
2019-01-23T11:55:07.532Z,40.87
2019-01-23T11:57:33.396Z,40.53
2019-01-23T11:59:59.298Z,38.53
2019-01-23T12:02:30.744Z,38.47
2019-01-23T12:04:53.076Z,38.00
2019-01-23T12:07:19.017Z,39.67
2019-01-23T12:09:44.987Z,38.43
2019-01-23T12:12:10.949Z,39.20
2019-01-23T12:14:36.844Z,38.37
2019-01-23T12:17:02.742Z,40.40
2019-01-23T12:19:28.625Z,39.27
2019-01-23T12:21:54.546Z,38.83
2019-01-23T12:24:20.537Z,41.10
2019-01-23T12:26:46.460Z,49.23
2019-01-23T12:29:12.483Z,45.53
2019-01-23T12:31:38.401Z,43.43
2019-01-23T12:34:04.265Z,42.60
2019-01-23T12:36:30.161Z,41.43
2019-01-23T12:38:56.175Z,40.90
2019-01-23T12:41:22.077Z,41.40
2019-01-23T12:43:47.999Z,42.53
2019-01-23T12:46:13.859Z,41.73
2019-01-23T12:48:39.791Z,43.17
2019-01-23T12:51:05.655Z,42.40
2019-01-23T12:53:31.624Z,43.17
2019-01-23T12:55:57.536Z,45.97
2019-01-23T12:58:23.421Z,45.80
2019-01-23T13:00:49.360Z,43.90
2019-01-23T13:03:15.300Z,44.37
2019-01-23T13:05:41.180Z,45.07
2019-01-23T13:08:07.133Z,42.73
2019-01-23T13:10:33.005Z,44.47
2019-01-23T13:12:58.889Z,44.00
2019-01-23T13:15:26.220Z,44.73
2019-01-23T13:17:52.502Z,43.37
2019-01-23T13:20:20.522Z,42.97
2019-01-23T13:22:46.422Z,45.20
2019-01-23T13:25:18.596Z,43.27
2019-01-23T13:27:44.534Z,46.37
2019-01-23T13:30:13.441Z,44.37
2019-01-23T13:32:39.327Z,43.10
2019-01-23T13:35:09.055Z,43.90
2019-01-23T13:37:35.025Z,42.60
2019-01-23T13:40:01.002Z,49.17
2019-01-23T13:42:26.876Z,47.17
2019-01-23T13:44:52.795Z,48.63
2019-01-23T13:47:18.677Z,47.37
2019-01-23T13:49:44.685Z,48.30
2019-01-23T13:52:10.556Z,46.70
2019-01-23T13:54:36.461Z,45.20
2019-01-23T13:57:02.695Z,48.90
2019-01-23T13:59:28.632Z,47.27
2019-01-23T14:01:56.366Z,46.73
2019-01-23T14:04:22.337Z,45.50
2019-01-23T14:06:48.289Z,43.70
2019-01-23T14:09:14.253Z,60.70
2019-01-23T14:11:40.161Z,46.37
2019-01-23T14:14:06.103Z,56.43
2019-01-23T14:16:32.024Z,46.27
2019-01-23T14:18:57.897Z,40.90
2019-01-23T14:21:23.812Z,39.57
2019-01-23T14:23:49.713Z,40.60
2019-01-23T14:26:15.605Z,40.50
2019-01-23T14:28:41.527Z,38.43
2019-01-23T14:31:07.396Z,40.80
2019-01-23T14:33:33.303Z,39.57
2019-01-23T14:35:59.208Z,40.93
2019-01-23T14:38:25.114Z,40.03
2019-01-23T14:40:51.024Z,39.50
2019-01-23T14:43:16.956Z,41.03
2019-01-23T14:45:42.827Z,40.30
2019-01-23T14:48:08.696Z,41.97
2019-01-23T14:50:34.626Z,40.27
2019-01-23T14:53:00.505Z,38.50
2019-01-23T14:55:26.540Z,39.60
2019-01-23T14:57:52.536Z,40.33
2019-01-23T15:00:24.092Z,40.07
2019-01-23T15:02:50.038Z,41.03
2019-01-23T15:05:16.059Z,40.33
2019-01-23T15:07:42.054Z,39.83
2019-01-23T15:10:20.158Z,57.23
2019-01-23T15:12:46.106Z,43.17
2019-01-23T15:15:12.586Z,38.87
2019-01-23T15:17:39.528Z,40.93
2019-01-23T15:20:20.512Z,42.87
2019-01-23T15:22:46.395Z,47.30
2019-01-23T15:25:12.397Z,45.17
2019-01-23T15:27:38.393Z,42.07
2019-01-23T15:30:07.397Z,38.97
2019-01-23T15:32:33.491Z,40.57
2019-01-23T15:34:59.476Z,38.57
2019-01-23T15:37:25.517Z,37.30
2019-01-23T15:39:51.485Z,37.33
2019-01-23T15:42:17.511Z,35.40
2019-01-23T15:44:43.399Z,39.30
2019-01-23T15:47:09.414Z,35.00
2019-01-23T15:49:35.301Z,37.87
2019-01-23T15:52:01.342Z,37.67
2019-01-23T15:54:27.232Z,38.47
2019-01-23T15:56:53.218Z,35.80
2019-01-23T15:59:19.132Z,37.10
2019-01-23T16:01:45.006Z,34.03
2019-01-23T16:04:10.912Z,39.57
2019-01-23T16:06:36.800Z,37.37
2019-01-23T16:09:04.594Z,33.50
2019-01-23T16:11:30.459Z,33.67
2019-01-23T16:13:56.343Z,34.47
2019-01-23T16:16:22.344Z,35.87
2019-01-23T16:18:48.241Z,35.53
2019-01-23T16:21:14.150Z,36.83
2019-01-23T16:23:40.203Z,35.07
2019-01-23T16:26:06.267Z,36.10
2019-01-23T16:28:32.246Z,36.50
2019-01-23T16:30:58.166Z,35.33
2019-01-23T16:33:24.074Z,40.07
2019-01-23T16:35:49.940Z,40.10
2019-01-23T16:38:15.864Z,39.27
2019-01-23T16:40:41.735Z,37.10
2019-01-23T16:43:07.645Z,38.63
2019-01-23T16:45:33.527Z,36.37
2019-01-23T16:47:59.423Z,37.50
2019-01-23T16:50:26.999Z,38.50
2019-01-23T16:52:53.931Z,47.57
2019-01-23T16:55:20.024Z,44.67
2019-01-23T16:57:46.481Z,42.80
2019-01-23T17:00:15.453Z,48.40
2019-01-23T17:02:41.395Z,42.80
2019-01-23T17:05:13.913Z,42.23
2019-01-23T17:07:39.817Z,38.83
2019-01-23T17:10:09.545Z,43.20
2019-01-23T17:12:35.535Z,42.50
2019-01-23T17:15:01.446Z,40.50
2019-01-23T17:17:27.421Z,42.57
2019-01-23T17:19:53.371Z,41.03
2019-01-23T17:22:19.291Z,44.67
2019-01-23T17:24:45.227Z,45.07
2019-01-23T17:27:11.130Z,45.83
2019-01-23T17:29:37.092Z,42.87
2019-01-23T17:32:02.986Z,43.43
2019-01-23T17:34:28.886Z,42.40
2019-01-23T17:36:54.816Z,42.90
2019-01-23T17:39:21.352Z,40.60
2019-01-23T17:41:47.304Z,44.60
2019-01-23T17:44:13.383Z,44.27
2019-01-23T17:46:40.021Z,44.40
2019-01-23T17:49:05.891Z,46.53
2019-01-23T17:51:31.830Z,44.57
2019-01-23T17:53:57.714Z,45.83
2019-01-23T17:56:23.672Z,45.27
2019-01-23T17:58:49.572Z,47.37
2019-01-23T18:01:15.583Z,46.50
2019-01-23T18:03:41.472Z,46.80
2019-01-23T18:06:07.382Z,48.50
2019-01-23T18:08:33.339Z,44.57
2019-01-23T18:10:59.216Z,45.20
2019-01-23T18:13:25.176Z,47.27
2019-01-23T18:15:51.159Z,47.13
2019-01-23T18:18:17.076Z,47.57
2019-01-23T18:20:43.068Z,49.70
2019-01-23T18:23:09.007Z,48.50
2019-01-23T18:25:34.870Z,46.43
2019-01-23T18:28:00.795Z,50.27
2019-01-23T18:30:36.471Z,51.30
2019-01-23T18:33:05.546Z,88.87
2019-01-23T18:35:50.609Z,60.73
2019-01-23T18:38:26.199Z,53.57
2019-01-23T18:41:24.972Z,60.37
2019-01-23T18:44:26.667Z,69.13
2019-01-23T18:46:56.483Z,54.23
2019-01-23T18:49:50.444Z,54.50
2019-01-23T18:52:16.351Z,52.40
2019-01-23T18:54:43.046Z,55.10
2019-01-23T18:57:15.590Z,54.20
2019-01-23T18:59:41.496Z,54.33
2019-01-23T19:02:07.368Z,54.60
2019-01-23T19:04:33.276Z,55.30
2019-01-23T19:06:59.188Z,53.90
2019-01-23T19:09:25.238Z,56.57
2019-01-23T19:11:51.246Z,55.63
2019-01-23T19:14:17.152Z,60.40
2019-01-23T19:16:43.037Z,57.67
2019-01-23T19:19:08.967Z,58.23
2019-01-23T19:21:34.841Z,57.30
2019-01-23T19:24:00.769Z,59.60
2019-01-23T19:26:26.674Z,57.80
2019-01-23T19:28:52.629Z,59.53
2019-01-23T19:31:18.582Z,60.70
2019-01-23T19:33:44.502Z,57.37
2019-01-23T19:36:10.395Z,58.60
2019-01-23T19:38:36.302Z,59.33
2019-01-23T19:41:02.204Z,61.43
2019-01-23T19:43:28.144Z,60.30
2019-01-23T19:45:54.023Z,59.97
2019-01-23T19:48:19.983Z,60.80
2019-01-23T19:50:46.071Z,58.97
2019-01-23T19:53:11.955Z,59.67
2019-01-23T19:55:37.876Z,64.83
2019-01-23T19:58:04.603Z,61.47
2019-01-23T20:00:30.675Z,59.43
2019-01-23T20:02:56.651Z,61.23
2019-01-23T20:05:23.803Z,61.27
2019-01-23T20:07:49.674Z,63.13
2019-01-23T20:10:18.232Z,62.17
2019-01-23T20:12:44.126Z,60.67
2019-01-23T20:15:12.855Z,63.97
2019-01-23T20:17:38.742Z,57.67
2019-01-23T20:20:08.378Z,60.57
2019-01-23T20:22:34.254Z,62.00
2019-01-23T20:25:00.247Z,60.73
2019-01-23T20:27:26.123Z,59.30
2019-01-23T20:29:52.102Z,69.50
2019-01-23T20:32:18.038Z,64.20
2019-01-23T20:34:43.948Z,63.00
2019-01-23T20:37:09.820Z,59.87
2019-01-23T20:39:35.737Z,63.13
2019-01-23T20:42:01.627Z,63.53
2019-01-23T20:44:27.587Z,62.73
2019-01-23T20:46:53.456Z,62.57
2019-01-23T20:49:19.373Z,62.60
2019-01-23T20:51:45.235Z,62.17
2019-01-23T20:54:11.148Z,63.03
2019-01-23T20:56:37.026Z,61.27
2019-01-23T20:59:02.931Z,60.67
2019-01-23T21:01:28.806Z,63.10
2019-01-23T21:03:54.717Z,63.63
2019-01-23T21:06:20.629Z,62.00
2019-01-23T21:08:46.530Z,69.47
2019-01-23T21:11:12.440Z,68.93
2019-01-23T21:13:38.303Z,61.40
2019-01-23T21:16:04.246Z,61.90
2019-01-23T21:18:30.111Z,62.37
2019-01-23T21:20:56.039Z,62.47
2019-01-23T21:23:21.924Z,65.13
2019-01-23T21:25:47.845Z,62.07
2019-01-23T21:28:13.733Z,60.03
2019-01-23T21:30:39.709Z,64.70
2019-01-23T21:33:05.613Z,59.80
2019-01-23T21:35:31.531Z,60.57
2019-01-23T21:37:57.469Z,64.90
2019-01-23T21:40:26.154Z,60.33
2019-01-23T21:42:52.071Z,58.53
2019-01-23T21:45:17.977Z,58.33
2019-01-23T21:47:46.219Z,57.57
2019-01-23T21:50:14.692Z,55.67
2019-01-23T21:52:40.568Z,59.47
2019-01-23T21:55:08.975Z,57.53
2019-01-23T21:57:34.835Z,54.23
2019-01-23T22:00:00.742Z,52.90
2019-01-23T22:02:26.610Z,55.07
2019-01-23T22:04:52.534Z,57.20
2019-01-23T22:07:18.410Z,52.23
2019-01-23T22:09:44.314Z,49.73
2019-01-23T22:12:10.218Z,48.60
2019-01-23T22:14:36.122Z,50.97
2019-01-23T22:17:01.999Z,46.37
2019-01-23T22:19:27.928Z,42.97
2019-01-23T22:21:53.791Z,42.97
2019-01-23T22:24:19.680Z,42.80
2019-01-23T22:26:45.569Z,43.20
2019-01-23T22:29:11.434Z,41.00
2019-01-23T22:31:37.383Z,40.13
2019-01-23T22:34:03.366Z,37.80
2019-01-23T22:36:29.277Z,39.43
2019-01-23T22:38:55.142Z,36.47
2019-01-23T22:41:21.066Z,35.87
2019-01-23T22:43:47.255Z,38.30
2019-01-23T22:46:13.137Z,34.47
2019-01-23T22:48:39.045Z,34.10
2019-01-23T22:51:04.945Z,33.90
2019-01-23T22:53:30.967Z,32.83
2019-01-23T22:55:56.891Z,32.47
2019-01-23T22:58:22.801Z,30.67
2019-01-23T23:00:52.793Z,31.73
2019-01-23T23:03:18.657Z,29.57
2019-01-23T23:05:44.576Z,29.77
2019-01-23T23:08:10.571Z,29.30
2019-01-23T23:10:36.522Z,29.47
2019-01-23T23:13:02.394Z,30.47
2019-01-23T23:15:28.293Z,28.90
2019-01-23T23:17:54.209Z,29.43
2019-01-23T23:20:20.082Z,30.27
2019-01-23T23:22:45.993Z,28.93
2019-01-23T23:25:11.909Z,27.53
2019-01-23T23:27:39.532Z,28.60
2019-01-23T23:30:20.640Z,26.97
2019-01-23T23:32:46.598Z,28.00
2019-01-23T23:35:12.508Z,26.13
2019-01-23T23:37:38.416Z,28.40
2019-01-23T23:40:07.998Z,29.10
2019-01-23T23:42:33.914Z,28.27
2019-01-23T23:47:25.647Z,30.10
2019-01-23T23:49:51.556Z,30.63
2019-01-23T23:52:17.458Z,28.17
2019-01-23T23:54:43.322Z,27.97
2019-01-23T23:57:09.237Z,28.13
2019-01-23T23:59:35.105Z,27.17
